createdAt,value
2022-08-25T00:00:27.596Z,61.5
2022-08-25T00:01:29.740Z,62.2
2022-08-25T00:02:27.641Z,61.4
2022-08-25T00:03:27.606Z,61.9
2022-08-25T00:05:29.114Z,62
2022-08-25T00:06:27.632Z,62.4
2022-08-25T00:07:27.605Z,61.9
2022-08-25T00:08:27.604Z,62.6
2022-08-25T00:09:27.606Z,62.3
2022-08-25T00:10:27.602Z,62.4
2022-08-25T00:11:27.600Z,62.6
2022-08-25T00:12:27.610Z,62.8
2022-08-25T00:13:27.608Z,62.8
2022-08-25T00:14:27.608Z,63.5
2022-08-25T00:15:27.636Z,63.6
2022-08-25T00:16:27.608Z,63.7
2022-08-25T00:17:27.605Z,64
2022-08-25T00:18:27.680Z,63.9
2022-08-25T00:19:27.611Z,63.5
2022-08-25T00:20:27.611Z,64.4
2022-08-25T00:21:27.615Z,64.5
2022-08-25T00:22:27.606Z,64.4
2022-08-25T00:23:27.609Z,64.6
2022-08-25T00:24:27.618Z,63.9
2022-08-25T00:26:27.625Z,63.9
2022-08-25T00:27:27.618Z,64.1
2022-08-25T00:28:27.616Z,64.2
2022-08-25T00:29:27.625Z,64.3
2022-08-25T00:30:27.623Z,64.4
2022-08-25T00:31:38.510Z,64.6
2022-08-25T00:32:27.626Z,64.6
2022-08-25T00:34:27.628Z,65.5
2022-08-25T00:35:27.622Z,65.6
2022-08-25T00:36:27.624Z,65.3
2022-08-25T00:38:27.618Z,65.5
2022-08-25T00:39:27.632Z,65.1
2022-08-25T00:40:27.779Z,65.2
2022-08-25T00:41:27.618Z,64.9
2022-08-25T00:42:27.623Z,65.4
2022-08-25T00:43:27.627Z,65.2
2022-08-25T00:44:27.638Z,65.4
2022-08-25T00:45:27.628Z,64.7
2022-08-25T00:46:27.744Z,65.1
2022-08-25T00:47:27.649Z,65.1
2022-08-25T00:48:27.633Z,65
2022-08-25T00:49:27.623Z,64.6
2022-08-25T00:50:27.634Z,64.6
2022-08-25T00:51:27.628Z,64.6
2022-08-25T00:53:27.646Z,64.5
2022-08-25T00:56:27.723Z,64.4
2022-08-25T00:57:34.212Z,64.6
2022-08-25T00:58:27.651Z,64.3
2022-08-25T01:03:30.508Z,64.3
2022-08-25T01:04:48.895Z,63.9
2022-08-25T01:06:39.869Z,64.7
2022-08-25T01:07:27.700Z,65
2022-08-25T01:08:27.641Z,65.2
2022-08-25T01:09:27.643Z,65.1
2022-08-25T01:10:27.639Z,65.5
2022-08-25T01:11:27.647Z,64.9
2022-08-25T01:12:27.641Z,65.2
2022-08-25T01:13:27.648Z,65
2022-08-25T01:14:27.695Z,64.7
2022-08-25T01:15:27.709Z,65.1
2022-08-25T01:16:27.692Z,65.5
2022-08-25T01:17:27.649Z,65.8
2022-08-25T01:18:27.643Z,65.7
2022-08-25T01:20:29.608Z,65.8
2022-08-25T01:21:27.708Z,66.5
2022-08-25T01:22:27.643Z,66.5
2022-08-25T01:23:27.654Z,66.2
2022-08-25T01:24:27.647Z,66.3
2022-08-25T01:25:27.649Z,65.9
2022-08-25T01:26:30.384Z,66.4
2022-08-25T01:27:27.655Z,66.3
2022-08-25T01:28:27.708Z,66
2022-08-25T01:29:27.652Z,66.2
2022-08-25T01:30:27.659Z,65.8
2022-08-25T01:31:27.780Z,66.1
2022-08-25T01:32:27.658Z,66.6
2022-08-25T01:33:27.657Z,66.3
2022-08-25T01:34:27.662Z,66.1
2022-08-25T01:35:27.660Z,66.1
2022-08-25T01:36:27.662Z,66
2022-08-25T01:37:27.658Z,66.1
2022-08-25T01:39:27.671Z,66
2022-08-25T01:40:27.788Z,66.3
2022-08-25T01:42:27.730Z,68.3
2022-08-25T01:43:27.670Z,67.4
2022-08-25T01:44:27.672Z,67
2022-08-25T01:45:27.664Z,67.1
2022-08-25T01:48:27.687Z,67.9
2022-08-25T01:49:27.685Z,68
2022-08-25T01:51:41.788Z,67.8
2022-08-25T01:56:48.421Z,68.2
2022-08-25T01:58:46.195Z,68.3
2022-08-25T02:04:29.918Z,68.7
2022-08-25T02:05:47.995Z,69
2022-08-25T02:07:27.707Z,68.9
2022-08-25T02:12:28.509Z,69.1
2022-08-25T02:15:37.854Z,69.9
2022-08-25T02:16:27.715Z,69.6
2022-08-25T02:17:27.687Z,69.7
2022-08-25T02:18:27.689Z,70.2
2022-08-25T02:19:27.684Z,70.3
2022-08-25T02:20:27.685Z,70.3
2022-08-25T02:21:27.682Z,70
2022-08-25T02:22:27.689Z,69.8
2022-08-25T02:23:44.977Z,69.9
2022-08-25T02:24:27.705Z,70.3
2022-08-25T02:25:27.683Z,70.1
2022-08-25T02:27:27.688Z,70.2
2022-08-25T02:28:27.688Z,70.1
2022-08-25T02:29:27.691Z,70.7
2022-08-25T02:30:27.728Z,71
2022-08-25T02:31:27.696Z,70.9
2022-08-25T02:32:27.688Z,70.9
2022-08-25T02:33:27.691Z,71
2022-08-25T02:34:27.690Z,70.7
2022-08-25T02:35:27.741Z,70.7
2022-08-25T02:36:27.688Z,70.6
2022-08-25T02:37:27.696Z,71
2022-08-25T02:38:27.692Z,71
2022-08-25T02:40:27.766Z,71.4
2022-08-25T02:41:31.069Z,71.5
2022-08-25T02:42:27.755Z,71.3
2022-08-25T02:43:27.712Z,71.5
2022-08-25T02:44:27.699Z,70.9
2022-08-25T02:45:27.695Z,71.2
2022-08-25T02:46:27.793Z,71.2
2022-08-25T02:48:27.696Z,71.6
2022-08-25T02:49:27.756Z,71.2
2022-08-25T02:50:27.696Z,71.3
2022-08-25T02:51:27.703Z,71.6
2022-08-25T02:52:27.698Z,71.9
2022-08-25T02:53:27.701Z,72.5
2022-08-25T02:54:27.710Z,72.3
2022-08-25T02:55:27.703Z,72.1
2022-08-25T02:56:27.712Z,72
2022-08-25T02:57:27.696Z,71.6
2022-08-25T02:58:27.703Z,71.7
2022-08-25T02:59:27.706Z,71.8
2022-08-25T03:00:27.709Z,71.8
2022-08-25T03:01:29.045Z,71.8
2022-08-25T03:02:27.710Z,71.6
2022-08-25T03:03:27.731Z,71.8
2022-08-25T03:04:27.749Z,71.5
2022-08-25T03:05:27.736Z,71.5
2022-08-25T03:06:27.703Z,71.6
2022-08-25T03:07:27.708Z,71.2
2022-08-25T03:08:27.745Z,71.3
2022-08-25T03:09:27.708Z,71.7
2022-08-25T03:11:27.707Z,71.6
2022-08-25T03:12:27.717Z,71.5
2022-08-25T03:13:27.710Z,71.5
2022-08-25T03:14:27.712Z,71.3
2022-08-25T03:15:27.729Z,71.3
2022-08-25T03:16:28.128Z,71
2022-08-25T03:21:53.217Z,70.5
2022-08-25T03:22:48.809Z,70.6
2022-08-25T03:23:48.488Z,70.3
2022-08-25T03:26:18.717Z,70.1
2022-08-25T03:28:46.936Z,70.5
2022-08-25T03:30:19.559Z,70.5
2022-08-25T03:30:40.124Z,70.3
2022-08-25T03:31:54.289Z,70.9
2022-08-25T03:34:27.723Z,71.2
2022-08-25T03:35:27.727Z,71.1
2022-08-25T03:36:27.731Z,71.4
2022-08-25T03:37:27.728Z,71.5
2022-08-25T03:38:27.734Z,70.9
2022-08-25T03:39:27.736Z,70.7
2022-08-25T03:40:27.788Z,70.5
2022-08-25T03:41:27.944Z,70.9
2022-08-25T03:42:27.741Z,70.5
2022-08-25T03:43:27.736Z,70.4
2022-08-25T03:44:27.733Z,70.4
2022-08-25T03:45:27.834Z,70.5
2022-08-25T03:46:27.731Z,71
2022-08-25T03:47:27.797Z,70.8
2022-08-25T03:48:27.739Z,70.9
2022-08-25T03:49:27.741Z,71.1
2022-08-25T03:50:27.744Z,70.6
2022-08-25T03:51:27.745Z,71.2
2022-08-25T03:52:27.748Z,71
2022-08-25T03:53:27.738Z,71
2022-08-25T03:54:27.794Z,70.9
2022-08-25T03:55:27.746Z,71.3
2022-08-25T03:56:27.747Z,71.7
2022-08-25T03:57:27.738Z,71.9
2022-08-25T03:58:27.751Z,71.2
2022-08-25T03:59:27.771Z,71.7
2022-08-25T04:00:27.745Z,71.5
2022-08-25T04:01:27.873Z,71.5
2022-08-25T04:02:27.973Z,71.7
2022-08-25T04:03:27.740Z,72.1
2022-08-25T04:04:29.466Z,72.6
2022-08-25T04:05:27.752Z,72.3
2022-08-25T04:06:27.746Z,72.5
2022-08-25T04:07:27.752Z,72.8
2022-08-25T04:08:27.743Z,73.1
2022-08-25T04:09:27.757Z,72.6
2022-08-25T04:10:27.746Z,72.6
2022-08-25T04:11:27.748Z,72.6
2022-08-25T04:12:27.746Z,72.6
2022-08-25T04:13:27.753Z,72.8
2022-08-25T04:14:27.750Z,73.2
2022-08-25T04:15:28.613Z,73.3
2022-08-25T04:16:27.829Z,73.5
2022-08-25T04:17:27.760Z,73.2
2022-08-25T04:18:27.758Z,73.1
2022-08-25T04:20:27.759Z,73.4
2022-08-25T04:21:27.752Z,73.9
2022-08-25T04:22:27.793Z,74
2022-08-25T04:23:27.752Z,74.2
2022-08-25T04:24:27.758Z,74.6
2022-08-25T04:25:27.755Z,74.9
2022-08-25T04:26:27.768Z,74.7
2022-08-25T04:27:27.758Z,74.5
2022-08-25T04:28:27.766Z,74.5
2022-08-25T04:30:27.762Z,75
2022-08-25T04:31:27.763Z,75.2
2022-08-25T04:32:27.753Z,74.9
2022-08-25T04:33:27.763Z,74.7
2022-08-25T04:34:30.742Z,74.7
2022-08-25T04:36:27.764Z,74.8
2022-08-25T04:37:27.771Z,74.6
2022-08-25T04:38:27.759Z,74.4
2022-08-25T04:39:27.760Z,74.1
2022-08-25T04:41:27.765Z,74
2022-08-25T04:42:27.758Z,74.2
2022-08-25T04:43:27.772Z,74.1
2022-08-25T04:44:37.773Z,73.9
2022-08-25T04:45:27.791Z,74
2022-08-25T04:46:27.770Z,74.4
2022-08-25T04:47:28.141Z,74.2
2022-08-25T04:48:27.778Z,74.2
2022-08-25T04:49:27.764Z,74.4
2022-08-25T04:50:27.764Z,74.3
2022-08-25T04:51:27.773Z,74.2
2022-08-25T04:52:27.775Z,73.9
2022-08-25T04:53:27.779Z,73.2
2022-08-25T04:54:27.775Z,73.6
2022-08-25T04:55:27.782Z,73.6
2022-08-25T04:56:27.779Z,73.8
2022-08-25T04:57:27.845Z,73.7
2022-08-25T04:58:27.778Z,73.8
2022-08-25T04:59:29.513Z,74.2
2022-08-25T05:00:27.791Z,74.1
2022-08-25T05:01:27.822Z,74.2
2022-08-25T05:02:27.781Z,74
2022-08-25T05:03:27.779Z,73.5
2022-08-25T05:04:29.080Z,73.9
2022-08-25T05:05:27.776Z,74.2
2022-08-25T05:06:27.783Z,74.4
2022-08-25T05:07:27.785Z,74.2
2022-08-25T05:08:27.776Z,74.3
2022-08-25T05:09:27.776Z,74.1
2022-08-25T05:10:27.786Z,74
2022-08-25T05:11:27.791Z,74.1
2022-08-25T05:12:27.788Z,74.1
2022-08-25T05:13:27.793Z,73.9
2022-08-25T05:14:27.784Z,73.8
2022-08-25T05:15:27.787Z,74.2
2022-08-25T05:16:27.903Z,74.5
2022-08-25T05:17:27.784Z,74.3
2022-08-25T05:18:27.784Z,74.3
2022-08-25T05:19:27.799Z,74.7
2022-08-25T05:20:27.787Z,74.8
2022-08-25T05:21:27.794Z,74.6
2022-08-25T05:23:27.821Z,75.3
2022-08-25T05:24:27.787Z,75.2
2022-08-25T05:25:27.798Z,75
2022-08-25T05:26:27.787Z,74.8
2022-08-25T05:27:27.795Z,74.3
2022-08-25T05:28:27.788Z,74.3
2022-08-25T05:29:27.795Z,74.4
2022-08-25T05:30:27.791Z,74.1
2022-08-25T05:31:27.846Z,73.3
2022-08-25T05:32:27.797Z,73.6
2022-08-25T05:33:32.141Z,74.2
2022-08-25T05:34:27.800Z,74.1
2022-08-25T05:35:27.793Z,74.4
2022-08-25T05:36:27.795Z,73.5
2022-08-25T05:37:27.803Z,73.2
2022-08-25T05:38:27.799Z,74.2
2022-08-25T05:39:27.803Z,73.8
2022-08-25T05:40:27.840Z,73.9
2022-08-25T05:41:27.806Z,74.3
2022-08-25T05:42:27.892Z,73.3
2022-08-25T05:43:27.808Z,74.1
2022-08-25T05:44:44.010Z,74.3
2022-08-25T05:45:27.845Z,74.2
2022-08-25T05:46:27.799Z,74.8
2022-08-25T05:47:27.799Z,73.6
2022-08-25T05:48:27.809Z,72.4
2022-08-25T05:49:27.808Z,72.7
2022-08-25T05:50:27.804Z,72.6
2022-08-25T05:51:27.811Z,71.4
2022-08-25T05:52:27.806Z,71.2
2022-08-25T05:53:27.807Z,71.2
2022-08-25T05:54:27.803Z,70.9
2022-08-25T05:55:27.805Z,71.1
2022-08-25T05:56:27.810Z,70.7
2022-08-25T05:57:27.808Z,71.2
2022-08-25T05:58:27.804Z,70.9
2022-08-25T05:59:27.805Z,70.4
2022-08-25T06:00:27.897Z,70.5
2022-08-25T06:01:27.887Z,69.3
2022-08-25T06:02:27.813Z,68.8
2022-08-25T06:03:27.888Z,69.6
2022-08-25T06:04:27.814Z,69
2022-08-25T06:05:27.816Z,69
2022-08-25T06:06:27.818Z,68.5
2022-08-25T06:07:27.814Z,68.1
2022-08-25T06:08:27.809Z,68.1
2022-08-25T06:10:27.893Z,68.5
2022-08-25T06:11:27.820Z,68
2022-08-25T06:12:27.817Z,68.1
2022-08-25T06:13:29.039Z,67.7
2022-08-25T06:15:27.824Z,68.1
2022-08-25T06:16:27.903Z,67.6
2022-08-25T06:17:27.914Z,67.7
2022-08-25T06:18:27.820Z,67
2022-08-25T06:19:27.822Z,66
2022-08-25T06:20:27.817Z,67.1
2022-08-25T06:21:27.822Z,66.7
2022-08-25T06:22:27.835Z,66.2
2022-08-25T06:23:27.824Z,66.4
2022-08-25T06:24:27.827Z,65.7
2022-08-25T06:25:27.829Z,63.8
2022-08-25T06:26:27.830Z,63.8
2022-08-25T06:27:27.824Z,64
2022-08-25T06:28:27.824Z,63
2022-08-25T06:29:27.833Z,63.5
2022-08-25T06:30:28.858Z,64.2
2022-08-25T06:31:27.879Z,63.9
2022-08-25T06:32:27.829Z,63
2022-08-25T06:34:27.833Z,62.6
2022-08-25T06:35:27.830Z,63
2022-08-25T06:37:27.833Z,63.1
2022-08-25T06:38:27.828Z,62.4
2022-08-25T06:39:27.841Z,62.8
2022-08-25T06:40:28.014Z,63
2022-08-25T06:42:27.920Z,61.7
2022-08-25T06:43:27.832Z,61.9
2022-08-25T06:45:27.847Z,61.6
2022-08-25T06:47:27.837Z,61.3
2022-08-25T06:51:27.840Z,59.8
2022-08-25T06:52:29.556Z,60.2
2022-08-25T06:53:27.849Z,59.9
2022-08-25T06:55:27.850Z,59.6
2022-08-25T06:57:27.843Z,60
2022-08-25T08:05:27.887Z,50.9
2022-08-25T09:05:27.945Z,43.7
2022-08-25T10:05:38.008Z,35.4
2022-08-25T10:38:43.283Z,29.7
2022-08-25T15:26:38.342Z,27
2022-08-25T15:44:29.614Z,28.9
2022-08-25T16:26:45.132Z,29.7
2022-08-25T18:26:39.508Z,45.4
2022-08-25T18:51:28.439Z,46.7
2022-08-25T21:45:28.579Z,61.5
2022-08-25T21:47:44.008Z,61.7
2022-08-25T22:28:28.611Z,66
2022-08-25T23:47:39.525Z,70.8
